To NAV CANADA Home Page Login to a new session Search on AWWS site Disclaimer Vers la page française équivalente Tips FAQ What's new on the site To the Forecasts and Observations / NOTAM section To "File a Flight Plan" website Publications and other links Update of the User's profile FIC Telephone Numbers My Weather Data Folder Route Weather Data Regional Weather Data Local Weather Data To the Forecasts and Observations / NOTAM section
Request Generated 04/24/2019 at 15:59:49 UTC . Weather information available at that time is displayed.

METAR/TAF

FORT NELSON/BC    

METAR CYYE 241500Z 28011G20KT 30SM FEW090 BKN130 BKN220 05/M09 A2994 RMK AC1AC5CI1 AC TR SLP156=
METAR CYYE 241400Z 28007KT 30SM SCT090 BKN130 BKN220 04/M08 A2992 RMK AC4AC1CI1 SLP149=
METAR CYYE 241300Z 27007G15KT 20SM BKN075 BKN130 04/M08 A2991 RMK AC5AC1 SLP143=

TAF CYYE 241239Z 2413/2501 25008KT P6SM BKN100
BECMG 2413/2415 28012G22KT SCT100
FM242100 28015G25KT P6SM SCT090 TEMPO 2421/2424 P6SM VCSH BKN090
FM250000 28012KT P6SM SCT090
RMK NXT FCST BY 241900Z=
Your time UTC time
Weather data provided by Environment Canada and NAV CANADA